Aérodrome :
LOGIN :

S'inscrire | Disclaimer

   EN    FR    IT 

 










Légende :    VFR   VFR Marginal   IFR   IFR Intensif   IFR Très Intensif
Visi : 
Plafond : 
>= 8 km
>= 3000ft
5 à 8 km
1000 à 3000 ft
1500m à 5 km
500 à 1000 ft
800 à 1500m
200 à 500 ft
< 800m
< 200 ft
Symboles :   Orages  Brouillard  Fortes neiges  Fortes précipitations  Vent > 20 kt
SIGMETs :   Divers  Orages  Givrage  Turbulence  Onde Orograph.  Cendres Volcan.






- Altitude de l'aérodrome : 26 ft


ETNT - Wittmundhaven AB

DERNIER METAR :
  • 221620Z 30005KT 9999 BKN024 06/04 Q1034 WHT BLU+ TEMPO GRN

METARs EXPIRÉS :
  • 221611Z 30005KT 9999 FEW012 BKN022 BKN300 07/04 Q1034 WHT BLU+ TEMPO GRN
  • 221535Z 32006KT 9999 FEW012 BKN026 BKN300 07/04 Q1034 BLU BLU+ TEMPO GRN
  • 221520Z 33008KT 9999 FEW012 BKN023 07/04 Q1034 WHT BLU+ TEMPO GRN
  • 221420Z 33010KT 9999 FEW011 BKN021 08/04 Q1034 WHT BLU+ TEMPO GRN
  • 221400Z 34010KT 9999 FEW018 BKN024 08/04 Q1034 WHT BLU+ TEMPO GRN

TAF TAF ETNT
Valide du 22 à 15h jusqu'au 23 à 00h UTC


221420Z 2215/2224 33010KT 9999 NSW FEW012 SCT025
TEMPO 2215/2224 29006KT 6000 NSW BKN012 BKN025 BY ETGL



MET'MAP, la Météo Aéronautique d'un coup d'oeil ! - Copyright ORBIFLY Décembre 2007 - Disclaimer

ORBIFLY MET'MAP TEAM :

Programmation & Développement : Alexandra Zaïnal
Sur une idée originale de : Baudouin d'Aumeries
Assistance à la programmation : Marc-Olivier Méhu
Soutien technique & logistique : Manuel Goepfert

Contact : metmap@orbifly.com




SOURCES & CREDITS :

   NOAA